EPSC

Szczecin-Goleniów "Solidarność" Airport

Goleniow, Poland
METAR EPSC 201500Z 08007KT 050V120 CAVOK 03/M07 Q1021
Observed Flight Rules
Feb-20 @ 15:00 UTC (2 hours ago) Visual Flight Rules
Wind Visibility Clouds
80° at 7 knots 10,000+ meters
  • Clear skies
Temperatures Readings
Current 3°C / 37°F
Dewpoint -7°C / 19°F
Humidity 48%
Altimeter 30.15" Hg
Pressure 1021 hPa
Elevation 47
METAR EPSC 201500Z 08007KT 050V120 CAVOK 03/M07 Q1021
Observed Flight Rules
Feb-20 @ 15:00 UTC
(2 hours ago)
VFR
Wind Visibility
80° at 7 knots 10,000+ meters
Clouds
  • Clear skies
Temperature Dewpoint
3°C / 37°F -7°C / 19°F
Humidity Altimeter Pressure
48% 30.15" Hg 1021 hPa